Time;durP1;ratioP1;P1;durP2;ratioP2;P2;SDS_P1;SDS_P2;PMS_P1;PMS_P2;Temp;Humidity;BMP_temperature;BMP_pressure;BME280_temperature;BME280_humidity;BME280_pressure;Samples;Min_cycle;Max_cycle;Signal;HPM_P1;HPM_P2
2022/11/21 00:00:17;;;;;;;9.82;4.57;;;2.50;99.90;;;;;;5002623;28;20064;-72
2022/11/21 00:02:43;;;;;;;6.50;4.28;;;2.50;99.90;;;;;;4987697;28;20042;-72
2022/11/21 00:05:09;;;;;;;7.32;3.90;;;2.50;99.90;;;;;;4998529;28;20107;-72
2022/11/21 00:07:34;;;;;;;15.95;5.60;;;2.40;99.90;;;;;;4985201;28;20037;-72
2022/11/21 00:10:00;;;;;;;14.80;4.43;;;2.40;99.90;;;;;;4997290;28;20049;-72
2022/11/21 00:12:26;;;;;;;7.32;4.68;;;2.40;99.90;;;;;;5002398;28;20517;-72
2022/11/21 00:14:51;;;;;;;7.75;4.78;;;2.40;99.90;;;;;;5001395;28;20041;-72
2022/11/21 00:17:17;;;;;;;12.68;5.13;;;2.40;99.90;;;;;;5002091;28;20045;-72
2022/11/21 00:19:42;;;;;;;10.75;5.18;;;2.40;99.90;;;;;;4997512;28;20468;-72
2022/11/21 00:22:08;;;;;;;9.07;3.92;;;2.30;99.90;;;;;;5002613;28;20099;-72
2022/11/21 00:24:34;;;;;;;11.45;5.57;;;2.30;99.90;;;;;;4984503;28;20088;-72
2022/11/21 00:26:59;;;;;;;12.93;5.63;;;2.30;99.90;;;;;;5000526;28;20046;-72
2022/11/21 00:29:25;;;;;;;7.93;4.05;;;2.40;99.90;;;;;;5001092;28;20034;-72
2022/11/21 00:31:50;;;;;;;10.55;5.55;;;2.30;99.90;;;;;;4997317;28;21158;-72
2022/11/21 00:34:16;;;;;;;9.38;4.70;;;2.30;99.90;;;;;;4998957;28;20042;-72
2022/11/21 00:36:42;;;;;;;9.13;4.88;;;2.30;99.90;;;;;;5002994;28;20038;-72
2022/11/21 00:39:07;;;;;;;10.45;4.88;;;2.30;99.90;;;;;;5000801;28;20038;-72
2022/11/21 00:41:33;;;;;;;10.18;5.43;;;2.30;99.90;;;;;;5003110;28;20038;-72
2022/11/21 00:43:59;;;;;;;10.60;5.25;;;2.30;99.90;;;;;;4995569;28;20038;-72
2022/11/21 00:46:24;;;;;;;18.95;7.63;;;2.30;99.90;;;;;;4998277;28;20438;-72
2022/11/21 00:48:50;;;;;;;13.77;5.85;;;2.30;99.90;;;;;;4997798;28;20550;-72
2022/11/21 00:51:16;;;;;;;12.13;5.07;;;2.30;99.90;;;;;;4984237;28;20070;-72
2022/11/21 00:53:41;;;;;;;10.25;4.60;;;2.30;99.90;;;;;;5000722;28;20033;-72
2022/11/21 00:56:07;;;;;;;13.20;6.28;;;2.40;99.90;;;;;;4998682;28;20403;-72
2022/11/21 00:58:33;;;;;;;10.32;6.07;;;2.40;99.90;;;;;;4997477;28;20037;-72
2022/11/21 01:01:17;;;;;;;10.00;4.90;;;2.40;99.90;;;;;;5001016;28;20050;-72
2022/11/21 01:03:45;;;;;;;7.93;4.95;;;2.40;99.90;;;;;;5001214;28;20037;-72
2022/11/21 01:06:13;;;;;;;9.43;5.18;;;2.40;99.90;;;;;;4999594;28;20034;-72
2022/11/21 01:08:41;;;;;;;11.18;4.85;;;2.40;99.90;;;;;;5001165;28;20484;-72
2022/11/21 01:11:18;;;;;;;12.43;5.40;;;2.30;99.90;;;;;;5001923;28;20045;-72
2022/11/21 01:13:44;;;;;;;7.55;4.13;;;2.30;99.90;;;;;;4997784;28;20120;-72
2022/11/21 01:16:19;;;;;;;9.55;5.07;;;2.30;99.90;;;;;;4997491;28;20628;-72
2022/11/21 01:18:45;;;;;;;8.85;5.40;;;2.20;99.90;;;;;;4999291;28;20057;-72
2022/11/21 01:21:14;;;;;;;6.22;4.10;;;2.10;99.90;;;;;;4986804;28;20038;-72
2022/11/21 01:23:40;;;;;;;12.55;4.85;;;2.10;99.90;;;;;;5002433;28;20048;-72
2022/11/21 01:26:09;;;;;;;6.05;3.85;;;2.10;99.90;;;;;;5001541;28;20046;-72
2022/11/21 01:28:35;;;;;;;8.63;4.32;;;2.00;99.90;;;;;;4989222;28;20060;-72
2022/11/21 01:31:12;;;;;;;9.25;3.47;;;2.00;99.90;;;;;;4996652;28;20053;-72
2022/11/21 01:33:39;;;;;;;6.80;4.20;;;2.00;99.90;;;;;;5001063;28;20044;-72
2022/11/21 01:36:19;;;;;;;11.45;4.85;;;2.00;99.90;;;;;;5000572;28;20096;-72
2022/11/21 01:38:46;;;;;;;9.48;4.70;;;2.00;99.90;;;;;;4997358;28;20069;-72
2022/11/21 01:41:15;;;;;;;6.25;3.70;;;2.00;99.90;;;;;;4992938;28;20049;-72
2022/11/21 01:43:41;;;;;;;7.70;4.43;;;2.10;99.90;;;;;;4998801;28;20041;-72
2022/11/21 01:46:06;;;;;;;10.35;5.10;;;2.10;99.90;;;;;;5000182;28;20048;-72
2022/11/21 01:48:41;;;;;;;8.05;3.90;;;2.10;99.90;;;;;;4998043;28;20037;-72
2022/11/21 01:51:18;;;;;;;8.38;4.28;;;2.10;99.90;;;;;;4994709;28;20080;-72
2022/11/21 01:53:49;;;;;;;7.63;4.55;;;2.00;99.90;;;;;;4997463;28;20524;-72
2022/11/21 01:56:14;;;;;;;8.93;4.95;;;2.00;99.90;;;;;;4999239;28;20038;-72
2022/11/21 01:58:42;;;;;;;10.73;5.40;;;1.90;99.90;;;;;;4994805;28;20038;-72
2022/11/21 02:01:07;;;;;;;6.53;4.22;;;1.90;99.90;;;;;;4996767;28;20038;-72
2022/11/21 02:03:37;;;;;;;9.85;4.93;;;1.90;99.90;;;;;;4999113;28;20046;-72
2022/11/21 02:06:05;;;;;;;5.65;3.70;;;1.90;99.90;;;;;;5014819;28;20042;-72
2022/11/21 02:08:31;;;;;;;6.13;3.85;;;1.80;99.90;;;;;;5002049;28;20069;-72
2022/11/21 02:11:19;;;;;;;10.05;3.72;;;1.70;99.90;;;;;;5002465;28;20491;-72
2022/11/21 02:13:45;;;;;;;10.25;4.18;;;1.70;99.90;;;;;;4996701;28;20046;-72
2022/11/21 02:16:11;;;;;;;10.70;4.57;;;1.70;99.90;;;;;;5015306;28;20064;-72
2022/11/21 02:18:36;;;;;;;9.38;4.25;;;1.60;99.90;;;;;;4997035;28;20058;-72
2022/11/21 02:21:24;;;;;;;8.18;4.47;;;1.60;99.90;;;;;;5000169;28;20053;-72
2022/11/21 02:24:03;;;;;;;6.80;3.55;;;1.50;99.90;;;;;;4984203;28;20139;-72
2022/11/21 02:26:29;;;;;;;12.70;4.22;;;1.50;99.90;;;;;;4997630;28;20543;-72
2022/11/21 02:28:56;;;;;;;8.25;4.70;;;1.40;99.90;;;;;;4974554;28;20762;-72
2022/11/21 02:31:21;;;;;;;6.15;4.32;;;1.40;99.90;;;;;;4997572;28;20029;-72
2022/11/21 02:33:47;;;;;;;6.18;3.92;;;1.40;99.90;;;;;;4997731;28;20026;-72
2022/11/21 02:36:42;;;;;;;10.35;4.95;;;1.50;99.90;;;;;;5003238;28;20049;-72
2022/11/21 02:39:25;;;;;;;6.30;3.65;;;1.40;99.90;;;;;;4996985;28;20042;-72
2022/11/21 02:42:09;;;;;;;7.88;4.45;;;1.40;99.90;;;;;;4999552;28;20037;-72
2022/11/21 02:44:48;;;;;;;9.35;4.63;;;1.40;99.90;;;;;;4982937;28;20517;-72
2022/11/21 02:47:13;;;;;;;11.32;4.55;;;1.30;99.90;;;;;;5009295;28;20472;-72
2022/11/21 02:50:03;;;;;;;7.85;4.53;;;1.30;99.90;;;;;;4981122;28;20068;-71
2022/11/21 02:52:29;;;;;;;7.03;3.97;;;1.30;99.90;;;;;;4994734;28;20117;-72
2022/11/21 02:54:54;;;;;;;6.38;3.53;;;1.30;99.90;;;;;;4999289;28;20521;-72
2022/11/21 02:57:20;;;;;;;7.50;3.95;;;1.30;99.90;;;;;;4997710;28;20462;-72
2022/11/21 02:59:45;;;;;;;7.43;4.18;;;1.20;99.90;;;;;;4983307;28;20034;-72
2022/11/21 03:02:11;;;;;;;11.82;5.38;;;1.20;99.90;;;;;;4998010;28;20053;-72
2022/11/21 03:04:36;;;;;;;8.02;4.60;;;1.10;99.90;;;;;;4998338;28;20474;-71
2022/11/21 03:07:02;;;;;;;11.52;4.22;;;1.10;99.90;;;;;;5000735;28;20038;-72
2022/11/21 03:09:27;;;;;;;8.02;4.10;;;1.10;99.90;;;;;;4996124;28;20050;-72
2022/11/21 03:11:53;;;;;;;9.85;4.72;;;1.00;99.90;;;;;;4994773;28;20129;-71
2022/11/21 03:14:19;;;;;;;7.88;4.75;;;1.00;99.90;;;;;;4996830;28;20501;-71
2022/11/21 03:16:44;;;;;;;8.23;4.63;;;1.00;99.90;;;;;;4981581;28;20523;-72
2022/11/21 03:19:10;;;;;;;6.13;3.60;;;1.10;99.90;;;;;;4999890;28;20051;-72
2022/11/21 03:21:35;;;;;;;7.15;4.65;;;1.10;99.90;;;;;;4994650;28;20050;-72
2022/11/21 03:24:01;;;;;;;7.47;4.85;;;1.10;99.90;;;;;;4980584;28;20045;-71
2022/11/21 03:26:27;;;;;;;10.63;4.93;;;1.10;99.90;;;;;;4999859;28;20034;-72
2022/11/21 03:28:53;;;;;;;7.05;4.35;;;1.00;99.90;;;;;;4996574;28;20057;-72
2022/11/21 03:31:18;;;;;;;8.73;3.55;;;1.00;99.90;;;;;;4994660;28;20400;-72
2022/11/21 03:33:44;;;;;;;5.80;3.78;;;1.00;99.90;;;;;;4974660;28;20057;-71
2022/11/21 03:36:09;;;;;;;8.30;4.55;;;1.00;99.90;;;;;;4989031;28;20042;-72
2022/11/21 03:38:35;;;;;;;6.70;4.28;;;0.90;99.90;;;;;;4996271;28;20121;-72
2022/11/21 03:41:28;;;;;;;7.72;4.63;;;0.90;99.90;;;;;;4980388;28;20133;-72
2022/11/21 03:43:50;;;;;;;7.68;4.88;;;0.90;99.90;;;;;;4996981;28;20038;-72
2022/11/21 03:46:17;;;;;;;6.28;3.33;;;0.90;99.90;;;;;;5011905;28;20705;-72
2022/11/21 03:48:43;;;;;;;7.63;3.58;;;0.90;99.90;;;;;;4994355;28;20056;-72
2022/11/21 03:51:08;;;;;;;10.93;5.03;;;0.90;99.90;;;;;;4998622;28;20442;-72
2022/11/21 03:53:34;;;;;;;7.97;4.25;;;0.90;99.90;;;;;;4997311;28;20117;-71
2022/11/21 03:55:59;;;;;;;6.57;3.20;;;0.80;99.90;;;;;;4995493;28;20519;-72
2022/11/21 03:58:25;;;;;;;6.53;3.70;;;0.80;99.90;;;;;;4997765;28;20416;-72
2022/11/21 04:00:51;;;;;;;8.48;3.75;;;0.80;99.90;;;;;;5000433;28;20733;-71
2022/11/21 04:03:16;;;;;;;10.00;5.10;;;0.80;99.90;;;;;;5017508;28;20049;-71
2022/11/21 04:05:43;;;;;;;6.82;4.80;;;0.80;99.90;;;;;;5000522;28;20045;-71
2022/11/21 04:08:09;;;;;;;10.15;4.05;;;0.80;99.90;;;;;;4985926;28;20046;-72
2022/11/21 04:10:34;;;;;;;10.00;4.28;;;0.80;99.90;;;;;;4981725;28;20518;-71
2022/11/21 04:13:00;;;;;;;10.32;5.35;;;0.80;99.90;;;;;;5001066;28;20128;-72
2022/11/21 04:15:26;;;;;;;11.60;4.63;;;0.70;99.90;;;;;;5001418;28;20133;-72
2022/11/21 04:17:51;;;;;;;7.53;3.28;;;0.70;99.90;;;;;;4999242;28;20399;-71
2022/11/21 04:20:17;;;;;;;8.15;4.53;;;0.70;99.90;;;;;;5002828;28;20459;-72
2022/11/21 04:22:43;;;;;;;9.07;3.67;;;0.70;99.90;;;;;;5000564;28;20034;-71
2022/11/21 04:25:08;;;;;;;10.48;3.38;;;0.60;99.90;;;;;;4999952;28;20377;-71
2022/11/21 04:27:34;;;;;;;8.00;4.60;;;0.50;99.90;;;;;;4983987;28;20038;-71
2022/11/21 04:29:59;;;;;;;8.75;4.97;;;0.50;99.90;;;;;;4999747;28;20176;-71
2022/11/21 04:32:25;;;;;;;9.07;4.68;;;0.40;99.90;;;;;;5003609;28;20143;-72
2022/11/21 04:34:51;;;;;;;7.32;4.53;;;0.40;99.90;;;;;;4986148;28;20040;-71
2022/11/21 04:37:16;;;;;;;8.23;5.22;;;0.40;99.90;;;;;;4999826;28;20042;-72
2022/11/21 04:39:42;;;;;;;9.05;3.95;;;0.40;99.90;;;;;;5001583;28;20049;-71
2022/11/21 04:42:07;;;;;;;7.65;3.22;;;0.50;99.90;;;;;;5002471;28;20045;-71
2022/11/21 04:44:33;;;;;;;7.75;4.13;;;0.50;99.90;;;;;;4999456;28;20038;-71
2022/11/21 04:46:59;;;;;;;8.20;3.22;;;0.50;99.90;;;;;;5003782;28;20041;-71
2022/11/21 04:49:24;;;;;;;7.70;3.85;;;0.50;99.90;;;;;;4997818;28;20029;-72
2022/11/21 04:51:50;;;;;;;13.98;3.78;;;0.40;99.90;;;;;;5017347;28;20583;-71
2022/11/21 04:54:16;;;;;;;7.30;4.80;;;0.40;99.90;;;;;;4999850;28;20042;-71
2022/11/21 04:56:41;;;;;;;8.02;5.05;;;0.40;99.90;;;;;;4996828;28;20100;-71
2022/11/21 04:59:10;;;;;;;6.80;4.03;;;0.40;99.90;;;;;;5000702;28;20133;-71
2022/11/21 05:01:37;;;;;;;12.02;5.90;;;0.40;99.90;;;;;;5002250;28;20037;-71
2022/11/21 05:04:03;;;;;;;9.57;3.67;;;0.50;99.90;;;;;;4996632;28;20049;-71
2022/11/21 05:06:28;;;;;;;8.20;4.18;;;0.40;99.90;;;;;;4999730;28;20049;-71
2022/11/21 05:08:54;;;;;;;8.93;4.85;;;0.40;99.90;;;;;;4981288;28;20522;-71
2022/11/21 05:14:04;;;;;;;7.10;3.63;;;0.30;99.90;;;;;;5016856;28;20073;-71
2022/11/21 05:16:32;;;;;;;9.60;3.80;;;0.30;99.90;;;;;;5016720;28;20132;-71
2022/11/21 05:18:57;;;;;;;6.05;4.18;;;0.30;99.90;;;;;;4998499;28;20072;-71
2022/11/21 05:21:23;;;;;;;11.13;4.75;;;0.20;99.90;;;;;;4980923;28;20046;-71
2022/11/21 05:23:49;;;;;;;7.00;4.43;;;0.10;99.90;;;;;;4997657;28;20038;-71
2022/11/21 05:26:14;;;;;;;11.82;4.65;;;0.10;99.90;;;;;;4981596;28;20117;-71
2022/11/21 05:28:40;;;;;;;5.82;4.03;;;0.10;99.90;;;;;;4996208;28;20037;-71
2022/11/21 05:31:05;;;;;;;8.65;3.90;;;0.10;99.90;;;;;;5000186;28;20099;-71
2022/11/21 05:33:31;;;;;;;9.48;4.55;;;0.10;99.90;;;;;;4999746;28;20065;-71
2022/11/21 05:35:57;;;;;;;7.97;4.55;;;0.10;99.90;;;;;;4995792;28;20123;-71
2022/11/21 05:38:22;;;;;;;7.60;4.78;;;0.10;99.90;;;;;;4997800;28;20537;-71
2022/11/21 05:40:50;;;;;;;11.30;4.65;;;0.10;99.90;;;;;;4996578;28;20477;-71
2022/11/21 05:46:00;;;;;;;11.30;4.57;;;0.20;99.90;;;;;;5001907;28;20388;-71
2022/11/21 05:48:25;;;;;;;8.48;3.72;;;0.30;99.90;;;;;;4999987;28;20041;-71
2022/11/21 05:50:51;;;;;;;9.00;4.18;;;0.30;99.90;;;;;;5015469;28;20562;-71
2022/11/21 05:53:17;;;;;;;11.50;4.85;;;0.30;99.90;;;;;;4999332;28;20036;-71
2022/11/21 05:55:43;;;;;;;9.68;5.20;;;0.30;99.90;;;;;;5000365;28;20046;-71
2022/11/21 05:58:09;;;;;;;9.77;5.18;;;0.30;99.90;;;;;;5000460;28;20149;-71
2022/11/21 06:00:36;;;;;;;7.40;4.72;;;0.30;99.90;;;;;;4999079;28;20372;-71
2022/11/21 06:05:46;;;;;;;10.25;5.20;;;0.40;99.90;;;;;;5000478;28;20042;-71
2022/11/21 06:08:11;;;;;;;9.65;5.47;;;0.40;99.90;;;;;;4999336;28;20041;-71
2022/11/21 06:10:37;;;;;;;8.30;3.65;;;0.30;99.90;;;;;;5001368;28;20062;-71
2022/11/21 06:13:02;;;;;;;8.77;6.20;;;0.30;99.90;;;;;;4997954;28;20460;-71
2022/11/21 06:15:28;;;;;;;11.15;4.32;;;0.30;99.90;;;;;;4983891;28;20040;-71
2022/11/21 06:17:54;;;;;;;9.20;5.07;;;0.30;99.90;;;;;;5000945;28;20046;-71
2022/11/21 06:20:19;;;;;;;7.07;4.15;;;0.30;99.90;;;;;;4982572;28;20037;-71
2022/11/21 06:22:45;;;;;;;11.32;4.82;;;0.30;99.90;;;;;;4966452;28;20045;-71
2022/11/21 06:25:10;;;;;;;14.88;6.65;;;0.30;99.90;;;;;;4994631;28;20045;-71
2022/11/21 06:27:36;;;;;;;13.25;7.57;;;0.30;99.90;;;;;;4981429;28;20034;-71
2022/11/21 06:30:02;;;;;;;10.95;6.00;;;0.30;99.90;;;;;;4998726;28;20633;-71
2022/11/21 06:32:27;;;;;;;11.82;5.65;;;0.30;99.90;;;;;;4998468;28;20069;-71
2022/11/21 06:34:53;;;;;;;13.98;5.50;;;0.30;99.90;;;;;;4998106;28;20172;-71
2022/11/21 06:37:19;;;;;;;9.38;5.10;;;0.30;99.90;;;;;;4998410;28;20069;-72
2022/11/21 06:39:44;;;;;;;17.35;7.47;;;0.30;99.90;;;;;;4996813;28;20038;-72
2022/11/21 06:42:10;;;;;;;9.45;5.57;;;0.30;99.90;;;;;;4995154;28;20033;-72
2022/11/21 06:44:35;;;;;;;15.73;7.45;;;0.30;99.90;;;;;;4999402;28;20099;-72
2022/11/21 06:47:01;;;;;;;10.77;5.53;;;0.40;99.90;;;;;;4975971;28;20041;-72
2022/11/21 06:49:26;;;;;;;14.68;5.43;;;0.40;99.90;;;;;;4997385;28;21076;-72
2022/11/21 06:51:52;;;;;;;11.43;5.90;;;0.40;99.90;;;;;;4998366;28;20029;-72
2022/11/21 06:54:18;;;;;;;10.02;4.80;;;0.40;99.90;;;;;;4996465;28;20030;-72
2022/11/21 06:56:43;;;;;;;15.00;6.70;;;0.40;99.90;;;;;;4999274;28;20049;-72
2022/11/21 06:59:09;;;;;;;13.25;6.47;;;0.40;99.90;;;;;;4997541;28;20127;-73
2022/11/21 07:01:34;;;;;;;13.10;6.18;;;0.40;99.90;;;;;;4977378;28;20045;-72
2022/11/21 07:04:00;;;;;;;11.60;6.15;;;0.50;99.90;;;;;;5004737;28;20151;-72
2022/11/21 07:06:26;;;;;;;12.55;6.93;;;0.40;99.90;;;;;;5005058;28;20172;-72
2022/11/21 07:08:55;;;;;;;12.40;5.47;;;0.40;99.90;;;;;;5000761;28;20495;-72
2022/11/21 07:11:21;;;;;;;18.92;9.80;;;0.30;99.90;;;;;;5005775;28;20038;-72
2022/11/21 07:13:46;;;;;;;14.32;7.32;;;0.30;99.90;;;;;;5000673;28;20045;-72
2022/11/21 07:16:15;;;;;;;15.50;7.05;;;0.30;99.90;;;;;;4997216;28;20073;-72
2022/11/21 07:18:41;;;;;;;10.25;5.20;;;0.30;99.90;;;;;;4985007;28;20055;-73
2022/11/21 07:21:08;;;;;;;10.45;6.20;;;0.30;99.90;;;;;;4997008;28;20056;-72
2022/11/21 07:23:34;;;;;;;9.82;5.55;;;0.40;99.90;;;;;;5000010;28;20046;-73
2022/11/21 07:26:01;;;;;;;12.82;5.05;;;0.30;99.90;;;;;;4996972;28;20042;-72
2022/11/21 07:28:31;;;;;;;10.20;4.78;;;0.30;99.90;;;;;;4997415;28;20096;-72
2022/11/21 07:30:57;;;;;;;12.13;5.70;;;0.30;99.90;;;;;;4995969;28;20096;-72
2022/11/21 07:33:23;;;;;;;13.00;6.20;;;0.40;99.90;;;;;;4996676;28;20120;-73
2022/11/21 07:35:49;;;;;;;11.50;5.72;;;0.40;99.90;;;;;;4992217;28;20183;-72
2022/11/21 07:38:14;;;;;;;10.80;6.00;;;0.50;99.90;;;;;;4980886;28;20042;-72
2022/11/21 07:40:40;;;;;;;7.82;4.90;;;0.50;99.90;;;;;;5003918;28;21509;-73
2022/11/21 07:43:06;;;;;;;9.45;5.10;;;0.50;99.90;;;;;;4989296;28;20693;-72
2022/11/21 07:45:32;;;;;;;7.43;4.65;;;0.50;99.90;;;;;;5000440;28;20042;-72
2022/11/21 07:48:03;;;;;;;10.80;6.05;;;0.50;99.90;;;;;;5003116;28;20041;-73
2022/11/21 07:50:30;;;;;;;10.50;5.97;;;0.50;99.90;;;;;;5003086;28;20240;-73
2022/11/21 07:53:00;;;;;;;15.23;7.15;;;0.50;99.90;;;;;;5004465;28;20036;-73
2022/11/21 07:55:28;;;;;;;9.93;5.78;;;0.50;99.90;;;;;;5000440;28;20045;-73
2022/11/21 07:58:09;;;;;;;10.35;5.10;;;0.60;99.90;;;;;;5002512;28;20176;-73
2022/11/21 08:00:36;;;;;;;10.20;4.38;;;0.60;99.90;;;;;;5001919;28;20037;-73
2022/11/21 08:03:05;;;;;;;7.22;4.85;;;0.60;99.90;;;;;;5000122;28;20093;-72
2022/11/21 08:05:36;;;;;;;9.55;5.13;;;0.70;99.90;;;;;;5001387;28;20049;-73
2022/11/21 08:08:01;;;;;;;9.05;4.32;;;0.70;99.90;;;;;;4997475;28;21832;-73
2022/11/21 08:10:27;;;;;;;9.18;5.13;;;0.70;99.90;;;;;;5001857;28;20030;-73
2022/11/21 08:12:53;;;;;;;11.93;5.80;;;0.70;99.90;;;;;;4998038;28;20388;-73
2022/11/21 08:15:18;;;;;;;7.82;4.45;;;0.60;99.90;;;;;;5000200;28;20053;-73
2022/11/21 08:17:44;;;;;;;9.68;6.72;;;0.60;99.90;;;;;;4995976;28;20058;-73
2022/11/21 08:20:10;;;;;;;8.90;4.82;;;0.60;99.90;;;;;;4999239;28;20062;-73
2022/11/21 08:22:40;;;;;;;9.95;5.05;;;0.60;99.90;;;;;;4980210;28;20439;-73
2022/11/21 08:25:07;;;;;;;10.63;5.75;;;0.60;99.90;;;;;;4984369;28;20101;-73
2022/11/21 08:27:32;;;;;;;9.20;5.18;;;0.60;99.90;;;;;;5000914;28;20046;-73
2022/11/21 08:29:58;;;;;;;13.80;6.57;;;0.70;99.90;;;;;;4997700;28;20045;-73
2022/11/21 08:32:24;;;;;;;9.73;5.18;;;0.60;99.90;;;;;;4997001;28;20034;-73
2022/11/21 08:34:49;;;;;;;11.02;5.80;;;0.70;99.90;;;;;;4997818;28;20092;-73
2022/11/21 08:37:15;;;;;;;9.75;6.13;;;0.80;99.90;;;;;;5001573;28;20030;-73
2022/11/21 08:39:40;;;;;;;13.48;5.60;;;0.70;99.90;;;;;;5001452;28;20496;-73
2022/11/21 08:42:06;;;;;;;11.25;5.10;;;0.70;99.90;;;;;;4998838;28;20099;-73
2022/11/21 08:44:33;;;;;;;13.50;6.68;;;0.70;99.90;;;;;;4981536;28;20569;-73
2022/11/21 08:46:59;;;;;;;14.55;7.40;;;0.80;99.90;;;;;;5004533;28;20038;-73
2022/11/21 08:49:25;;;;;;;7.22;5.53;;;0.80;99.90;;;;;;4985198;28;20030;-73
2022/11/21 08:51:52;;;;;;;10.65;4.28;;;0.80;99.90;;;;;;5002127;28;20037;-73
2022/11/21 08:54:19;;;;;;;9.60;5.75;;;0.90;99.90;;;;;;4985436;28;20715;-73
2022/11/21 08:56:45;;;;;;;10.07;5.88;;;0.90;99.90;;;;;;4999526;28;20311;-73
2022/11/21 08:59:10;;;;;;;9.00;5.32;;;1.00;99.90;;;;;;5014538;28;20033;-72
2022/11/21 09:01:37;;;;;;;10.10;5.95;;;1.10;99.90;;;;;;4998242;28;20577;-73
2022/11/21 09:04:03;;;;;;;12.65;5.63;;;1.10;99.90;;;;;;4999331;28;20133;-73
2022/11/21 09:06:29;;;;;;;12.68;5.95;;;1.10;99.90;;;;;;4996714;28;20034;-73
2022/11/21 09:08:54;;;;;;;12.00;6.65;;;1.20;99.90;;;;;;5000275;28;20100;-73
2022/11/21 09:11:20;;;;;;;13.15;6.15;;;1.20;99.90;;;;;;5000605;28;20046;-73
2022/11/21 09:18:01;;;;;;;11.77;5.75;;;1.30;99.90;;;;;;4994541;28;20475;-73
2022/11/21 09:19:16;;;;;;;11.98;6.97;;;1.30;99.90;;;;;;4999472;28;20530;-73
2022/11/21 09:21:42;;;;;;;10.80;6.13;;;1.30;99.90;;;;;;5001024;28;20499;-75
2022/11/21 09:24:07;;;;;;;14.88;6.05;;;1.40;99.90;;;;;;4999958;28;20046;-73
2022/11/21 09:26:33;;;;;;;10.10;6.57;;;1.40;99.90;;;;;;4996951;28;20081;-73
2022/11/21 09:28:58;;;;;;;11.68;5.88;;;1.40;99.90;;;;;;4995623;28;20112;-73
2022/11/21 09:31:24;;;;;;;7.82;5.20;;;1.40;99.90;;;;;;4995629;28;20034;-73
2022/11/21 09:33:50;;;;;;;8.88;4.85;;;1.40;99.90;;;;;;4995038;28;20096;-73
2022/11/21 09:36:15;;;;;;;12.98;6.63;;;1.50;99.90;;;;;;5010471;28;20774;-76
2022/11/21 09:38:41;;;;;;;13.32;6.55;;;1.50;99.90;;;;;;4992004;28;20080;-73
2022/11/21 09:44:48;;;;;;;15.88;7.57;;;1.50;99.90;;;;;;4991260;28;20042;-73
2022/11/21 09:47:36;;;;;;;11.05;5.78;;;1.50;99.90;;;;;;4995686;28;20042;-73
2022/11/21 09:50:23;;;;;;;12.27;5.68;;;1.50;99.90;;;;;;4999074;28;20066;-73
2022/11/21 09:53:02;;;;;;;;;;;1.60;99.90;;;;;;5003163;28;20038;-73
2022/11/21 09:55:33;;;;;;;13.20;5.28;;;1.60;99.90;;;;;;5001053;28;20024;-73
2022/11/21 09:58:15;;;;;;;11.43;6.97;;;1.60;99.90;;;;;;4999203;28;20360;-73
2022/11/21 10:00:40;;;;;;;10.38;5.50;;;1.60;99.90;;;;;;4976206;28;20038;-73
2022/11/21 10:03:11;;;;;;;16.10;5.63;;;1.60;99.90;;;;;;5001771;28;20033;-71
2022/11/21 10:05:46;;;;;;;8.50;5.43;;;1.60;99.90;;;;;;5002431;28;20038;-71
2022/11/21 10:08:19;;;;;;;12.35;5.68;;;1.70;99.90;;;;;;4984400;28;20117;-71
2022/11/21 10:10:55;;;;;;;10.10;6.03;;;1.70;99.90;;;;;;4994367;28;20046;-71
2022/11/21 10:13:31;;;;;;;14.38;7.18;;;1.80;99.90;;;;;;4995779;28;20034;-70
2022/11/21 10:16:11;;;;;;;10.82;5.35;;;1.70;99.90;;;;;;4994825;28;20045;-71
2022/11/21 10:19:01;;;;;;;12.25;5.53;;;1.80;99.90;;;;;;4999214;28;20045;-70
2022/11/21 10:21:57;;;;;;;14.73;7.28;;;1.80;99.90;;;;;;5003989;28;20092;-70
2022/11/21 10:24:23;;;;;;;15.38;6.30;;;1.80;99.90;;;;;;4989000;28;20049;-73
2022/11/21 10:27:12;;;;;;;14.13;7.60;;;1.80;99.90;;;;;;4999475;28;20034;-73
2022/11/21 10:29:49;;;;;;;10.90;5.35;;;1.80;99.90;;;;;;5008945;28;20116;-73
2022/11/21 10:32:24;;;;;;;12.88;5.47;;;1.90;99.90;;;;;;4994384;28;20470;-73
2022/11/21 10:34:54;;;;;;;9.53;5.80;;;1.90;99.90;;;;;;4996033;28;20076;-74
2022/11/21 10:37:36;;;;;;;12.38;6.22;;;1.90;99.90;;;;;;4988386;28;20173;-74
2022/11/21 10:40:15;;;;;;;14.25;6.05;;;1.90;99.90;;;;;;4995272;28;20080;-74
2022/11/21 10:42:57;;;;;;;12.75;5.88;;;2.00;99.90;;;;;;5013315;28;20037;-72
2022/11/21 10:45:23;;;;;;;14.02;6.57;;;2.00;99.90;;;;;;4996133;28;20034;-72
2022/11/21 10:47:51;;;;;;;15.23;6.10;;;2.10;99.90;;;;;;4996142;28;20147;-73
2022/11/21 10:50:52;;;;;;;9.95;5.05;;;2.20;99.90;;;;;;4992415;28;20029;-73
2022/11/21 10:56:09;;;;;;;9.93;5.63;;;2.20;99.90;;;;;;4995138;28;20060;-73
2022/11/21 10:58:42;;;;;;;10.98;6.10;;;2.30;99.90;;;;;;5002338;28;20064;-73
2022/11/21 11:01:21;;;;;;;11.18;6.28;;;2.30;99.90;;;;;;4992833;28;20170;-73
2022/11/21 11:04:03;;;;;;;12.88;5.90;;;2.40;99.90;;;;;;4994316;28;20099;-73
2022/11/21 11:06:28;;;;;;;11.32;5.55;;;2.40;99.90;;;;;;4991754;28;20042;-73
2022/11/21 11:08:54;;;;;;;12.43;5.50;;;2.50;99.90;;;;;;4997708;28;20560;-73
2022/11/21 11:11:24;;;;;;;9.73;4.05;;;2.50;99.90;;;;;;5007572;28;20034;-73
2022/11/21 11:14:14;;;;;;;11.40;4.57;;;2.50;99.90;;;;;;4997070;28;20384;-73
2022/11/21 11:16:46;;;;;;;9.02;4.70;;;2.50;99.90;;;;;;4999980;28;20062;-73
2022/11/21 11:19:12;;;;;;;10.55;5.13;;;2.50;99.90;;;;;;4999500;28;20074;-73
2022/11/21 11:21:38;;;;;;;10.25;5.03;;;2.50;99.90;;;;;;5000278;28;20522;-74
2022/11/21 11:24:12;;;;;;;10.98;5.28;;;2.60;99.90;;;;;;5002181;28;20364;-73
2022/11/21 11:26:59;;;;;;;8.85;4.72;;;2.60;99.90;;;;;;5001676;28;20444;-73
2022/11/21 11:29:29;;;;;;;8.30;4.65;;;2.70;99.90;;;;;;5018693;28;20038;-73
2022/11/21 11:31:57;;;;;;;7.35;4.40;;;2.70;99.90;;;;;;4998884;28;20037;-73
2022/11/21 11:34:27;;;;;;;12.55;5.30;;;2.70;99.90;;;;;;4997406;28;20034;-73
2022/11/21 11:36:55;;;;;;;8.70;3.28;;;2.80;99.90;;;;;;4992343;28;20038;-73
2022/11/21 11:39:35;;;;;;;6.78;3.28;;;2.80;99.90;;;;;;4999552;28;20115;-73
2022/11/21 11:48:00;;;;;;;9.32;3.33;;;3.00;99.90;;;;;;4999698;28;20642;-73
2022/11/21 11:50:51;;;;;;;9.13;2.85;;;3.00;99.90;;;;;;5009799;28;20045;-73
2022/11/21 11:53:33;;;;;;;9.10;5.35;;;3.10;99.90;;;;;;5019187;28;20034;-73
2022/11/21 11:56:15;;;;;;;9.63;4.50;;;3.10;99.90;;;;;;4997557;28;20491;-73
2022/11/21 11:58:46;;;;;;;7.60;4.47;;;3.20;99.90;;;;;;5000891;28;20558;-73
2022/11/21 12:01:20;;;;;;;8.65;3.92;;;3.20;99.90;;;;;;5003418;28;20492;-73
2022/11/21 12:03:56;;;;;;;8.40;4.43;;;3.20;99.90;;;;;;5001572;28;20046;-73
2022/11/21 12:06:25;;;;;;;9.02;3.28;;;3.30;99.90;;;;;;4999847;28;20034;-73
2022/11/21 12:08:53;;;;;;;7.70;4.28;;;3.30;99.90;;;;;;5001985;28;20058;-73
2022/11/21 12:17:29;;;;;;;7.30;3.65;;;3.40;99.90;;;;;;4998331;28;20439;-73
2022/11/21 12:19:56;;;;;;;12.13;4.43;;;3.40;99.90;;;;;;4995762;28;20061;-73
2022/11/21 12:22:22;;;;;;;6.25;3.55;;;3.40;99.90;;;;;;4994699;28;20187;-73
2022/11/21 12:24:47;;;;;;;8.95;4.20;;;3.50;99.90;;;;;;5000564;28;20469;-73
2022/11/21 12:27:27;;;;;;;8.65;3.35;;;3.40;99.90;;;;;;4980601;28;20679;-72
2022/11/21 12:30:17;;;;;;;6.90;3.60;;;3.50;99.90;;;;;;4997236;28;20194;-73
2022/11/21 12:32:51;;;;;;;7.75;3.53;;;3.50;99.90;;;;;;5013981;28;20034;-74
2022/11/21 12:35:38;;;;;;;9.80;4.72;;;3.50;99.90;;;;;;4996342;28;20125;-72
2022/11/21 12:38:41;;;;;;;9.20;4.00;;;3.50;99.90;;;;;;4996335;28;20081;-73
2022/11/21 12:44:50;;;;;;;11.52;4.72;;;3.60;99.90;;;;;;4994193;28;20054;-72
2022/11/21 12:56:48;;;;;;;10.00;4.97;;;3.70;99.90;;;;;;5018878;28;20090;-73
2022/11/21 12:59:14;;;;;;;9.70;4.63;;;3.70;99.90;;;;;;4992959;28;20454;-73
2022/11/21 13:01:57;;;;;;;8.52;3.55;;;3.70;99.90;;;;;;4999807;28;20046;-73
2022/11/21 13:04:31;;;;;;;6.57;3.50;;;3.70;99.90;;;;;;4996058;28;20048;-73
2022/11/21 13:06:58;;;;;;;11.35;4.25;;;3.70;99.90;;;;;;4998298;28;20143;-73
2022/11/21 13:09:26;;;;;;;7.13;3.50;;;3.70;99.90;;;;;;4993309;28;20113;-73
2022/11/21 13:12:17;;;;;;;9.55;4.57;;;3.70;99.90;;;;;;4985018;28;20157;-71
2022/11/21 13:15:12;;;;;;;11.38;5.03;;;3.70;99.90;;;;;;4997679;28;20477;-71
2022/11/21 13:17:45;;;;;;;9.82;5.25;;;3.70;99.90;;;;;;5000293;28;20045;-71
2022/11/21 13:20:20;;;;;;;9.98;4.25;;;3.70;99.90;;;;;;5000893;28;20049;-70
2022/11/21 13:22:45;;;;;;;15.77;5.43;;;3.70;99.90;;;;;;5002207;28;20073;-71
2022/11/21 13:25:37;;;;;;;8.77;5.18;;;3.70;99.90;;;;;;4994742;28;20129;-71
2022/11/21 13:28:18;;;;;;;8.95;4.38;;;3.70;99.90;;;;;;4996465;28;20128;-70
2022/11/21 13:30:47;;;;;;;9.85;6.13;;;3.70;99.90;;;;;;4991110;28;20054;-70
2022/11/21 13:33:35;;;;;;;12.30;5.15;;;3.70;99.90;;;;;;4996540;28;20057;-71
2022/11/21 13:36:10;;;;;;;10.30;5.07;;;3.70;99.90;;;;;;4995283;28;20049;-70
2022/11/21 13:38:54;;;;;;;10.02;5.22;;;3.70;99.90;;;;;;5000165;28;20054;-70
2022/11/21 13:44:31;;;;;;;10.43;4.13;;;3.70;99.90;;;;;;5015393;28;20050;-73
2022/11/21 13:47:18;;;;;;;13.30;5.32;;;3.70;99.90;;;;;;4998756;28;20045;-73
2022/11/21 13:50:02;;;;;;;13.02;5.85;;;3.80;99.90;;;;;;4994762;28;20292;-74